Impacts METAR Board
IDs:

KMCO - Orlando Intl, FL, US

Updated at: 1500 UTC 23 May 2018
Potential Impact None Slight Moderate High
Time 23/03Z 23/04Z 23/05Z 23/06Z 23/07Z 23/08Z 23/09Z 23/10Z 23/11Z 23/12Z 23/13Z 23/14Z 23/15Z
Temp73 72 71 70 70 70 70 69 69 73 78 79 82
Dewpt67 68 68 68 68 69 69 69 69 72 72 70 69
Altim30.10 30.10 30.10 30.09 30.08 30.07 30.08 30.09 30.11 30.12 30.12 30.13 30.13
VIS10 10 10 10 10 10 10 10 9 10 10 10 10
CIG-- -- -- -- -- -- -- -- -- -- -- -- --
CoverSCTSCTSCTFEWFEWCLRCLRFEWFEWFEWFEWSCTSCT
FltCatVFRVFRVFRVFRVFRVFRVFRVFRVFRVFRVFRVFRVFR
WX--------------------------
WDir12011090009080080120170170110
WSpd5 4 3 0 0 3 3 0 3 3 5 5 7
WGst-- -- -- -- -- -- -- -- -- -- -- -- --
Raw hourly METARs
KMCO 230253Z 12005KT 10SM FEW030 SCT085 SCT140 23/19 A3010 RMK AO2 SLP192 T02280194 53008 $
KMCO 230353Z 11004KT 10SM FEW080 SCT140 22/20 A3010 RMK AO2 SLP192 T02220200 $
KMCO 230453Z 09003KT 10SM FEW030 FEW140 SCT250 22/20 A3010 RMK AO2 SLP191 T02170200 402780217 $
KMCO 230553Z 00000KT 10SM FEW030 21/20 A3009 RMK AO2 SLP188 T02110200 10244 20211 58005 $
KMCO 230653Z 00000KT 10SM FEW030 21/20 A3008 RMK AO2 SLP184 T02110200 $
KMCO 230753Z 09003KT 10SM CLR 21/21 A3007 RMK AO2 SLP182 T02110206 $
KMCO 230853Z 08003KT 10SM CLR 21/21 A3008 RMK AO2 SLP184 T02110206 55003 $
KMCO 230953Z 00000KT 10SM FEW020 FEW100 21/21 A3009 RMK AO2 SLP186 T02060206 $
KMCO 231053Z 08003KT 9SM FEW100 21/21 A3011 RMK AO2 SLP193 T02060206 $
KMCO 231153Z 12003KT 10SM FEW120 23/22 A3012 RMK AO2 SLP196 T02280222 10228 20200 53012 $
KMCO 231253Z 17005KT 10SM FEW120 26/22 A3012 RMK AO2 SLP199 T02560222 $
KMCO 231353Z 17005KT 10SM SCT019 26/21 A3013 RMK AO2 SLP200 T02610211 $
KMCO 231453Z 11007KT 10SM SCT028 SCT200 28/21 A3013 RMK AO2 SLP200 T02780206 50003 $



Page loaded:  15:02 UTC  |   08:02 AM Pacific  |   09:02 AM Mountain  |   10:02 AM Central  |   11:02 AM Eastern

 

ADVISORIES

FORECASTS

FORECASTS

OBSERVATIONS

USER TOOLS

ABOUT US